createdAt,value
2023-05-06T00:02:11.366Z,82.60
2023-05-06T00:07:13.380Z,83.20
2023-05-06T00:12:14.061Z,85.20
2023-05-06T00:17:14.956Z,84.78
2023-05-06T00:22:17.156Z,85.83
2023-05-06T00:27:17.900Z,86.75
2023-05-06T00:32:18.524Z,86.49
2023-05-06T00:37:20.505Z,86.99
2023-05-06T00:42:23.237Z,86.58
2023-05-06T00:47:24.192Z,86.97
2023-05-06T00:52:26.442Z,87.79
2023-05-06T00:57:27.711Z,87.91
2023-05-06T01:02:39.559Z,88.73
2023-05-06T01:07:53.632Z,89.65
2023-05-06T01:13:03.605Z,89.64
2023-05-06T01:18:11.317Z,89.44
2023-05-06T01:23:14.786Z,90.06
2023-05-06T01:28:15.727Z,90.03
2023-05-06T01:33:24.858Z,90.55
2023-05-06T01:38:35.913Z,90.71
2023-05-06T01:43:42.478Z,90.57
2023-05-06T01:48:46.142Z,91.45
2023-05-06T01:53:48.215Z,90.82
2023-05-06T01:58:48.975Z,90.52
2023-05-06T02:03:49.846Z,91.12
2023-05-06T02:08:52.836Z,90.47
2023-05-06T02:13:58.249Z,90.98
2023-05-06T02:18:59.173Z,91.62
2023-05-06T02:24:01.824Z,92.03
2023-05-06T02:29:02.740Z,91.60
2023-05-06T02:34:04.542Z,91.69
2023-05-06T02:39:06.545Z,91.72
2023-05-06T02:44:08.463Z,92.92
2023-05-06T02:49:09.159Z,92.83
2023-05-06T02:54:11.325Z,92.28
2023-05-06T02:59:12.026Z,92.31
2023-05-06T03:04:12.718Z,92.33
2023-05-06T03:09:15.618Z,92.33
2023-05-06T03:14:16.759Z,92.24
2023-05-06T03:19:17.477Z,92.62
2023-05-06T03:24:20.301Z,93.10
2023-05-06T03:29:22.167Z,92.83
2023-05-06T03:34:23.007Z,93.21
2023-05-06T03:39:25.070Z,92.54
2023-05-06T03:44:26.641Z,93.11
2023-05-06T03:49:27.533Z,92.93
2023-05-06T03:54:29.736Z,92.64
2023-05-06T03:59:30.667Z,93.45
2023-05-06T04:04:32.396Z,93.01
2023-05-06T04:09:34.448Z,92.56
2023-05-06T04:14:40.646Z,91.99
2023-05-06T04:19:42.201Z,91.45
2023-05-06T04:24:45.713Z,91.90
2023-05-06T04:29:47.893Z,91.65
2023-05-06T04:34:50.163Z,91.19
2023-05-06T04:39:52.312Z,90.74
2023-05-06T04:44:53.727Z,90.25
2023-05-06T04:49:59.231Z,90.78
2023-05-06T04:55:02.344Z,90.44
2023-05-06T05:00:06.318Z,90.14
2023-05-06T05:05:08.280Z,90.66
2023-05-06T05:10:12.410Z,91.05
2023-05-06T05:15:13.732Z,90.47
2023-05-06T05:20:14.999Z,90.16
2023-05-06T05:25:17.272Z,90.04
2023-05-06T05:30:19.270Z,90.91
2023-05-06T05:35:20.191Z,89.98
2023-05-06T05:40:23.841Z,89.64
2023-05-06T05:45:27.126Z,89.67
2023-05-06T05:50:28.670Z,89.28
2023-05-06T05:55:33.325Z,89.08
2023-05-06T06:00:34.069Z,86.29
2023-05-06T06:05:42.843Z,83.87
2023-05-06T06:10:45.261Z,84.33
2023-05-06T06:15:51.448Z,84.21
2023-05-06T06:20:53.412Z,84.83
2023-05-06T06:25:55.813Z,85.24
2023-05-06T06:30:56.508Z,85.38
2023-05-06T06:35:58.319Z,85.75
2023-05-06T06:41:00.485Z,84.22
2023-05-06T06:46:01.253Z,82.49
2023-05-06T06:51:01.933Z,81.19
2023-05-06T06:56:03.962Z,80.46
2023-05-06T07:01:04.815Z,78.73
2023-05-06T07:06:05.578Z,77.88
2023-05-06T07:11:07.608Z,77.84
2023-05-06T07:16:08.360Z,77.08
2023-05-06T07:21:09.016Z,76.04
2023-05-06T07:26:11.007Z,76.13
2023-05-06T07:31:11.715Z,75.82
2023-05-06T07:36:12.459Z,75.93
2023-05-06T07:41:14.699Z,75.19
2023-05-06T07:46:15.813Z,74.16
2023-05-06T07:51:17.688Z,74.75
2023-05-06T07:56:20.093Z,74.76
2023-05-06T08:01:20.834Z,76.21
2023-05-06T08:06:21.598Z,77.16
2023-05-06T08:11:23.722Z,77.51
2023-05-06T08:16:25.485Z,76.83
2023-05-06T08:21:26.557Z,76.14
2023-05-06T08:26:28.624Z,77.03
2023-05-06T08:31:29.295Z,78.20
2023-05-06T08:36:30.126Z,77.74
2023-05-06T08:41:35.387Z,78.02
2023-05-06T08:46:36.619Z,77.27
2023-05-06T08:51:39.129Z,77.07
2023-05-06T08:56:46.442Z,77.00
2023-05-06T09:01:47.276Z,76.98
2023-05-06T09:06:48.032Z,76.37
2023-05-06T09:11:54.156Z,76.74
2023-05-06T09:16:54.999Z,76.03
2023-05-06T09:21:56.796Z,74.01
2023-05-06T09:26:59.106Z,72.77
2023-05-06T09:32:06.879Z,73.68
2023-05-06T09:37:07.617Z,73.97
2023-05-06T09:42:09.635Z,73.74
2023-05-06T09:47:11.555Z,74.31
2023-05-06T09:52:13.105Z,73.89
2023-05-06T09:57:18.009Z,72.17
2023-05-06T10:02:20.466Z,70.84
2023-05-06T10:07:23.631Z,69.87
2023-05-06T10:12:26.686Z,70.69
2023-05-06T10:17:28.328Z,71.93
2023-05-06T10:22:42.764Z,72.31
2023-05-06T10:27:46.525Z,72.96
2023-05-06T10:32:47.731Z,73.14
2023-05-06T10:37:50.074Z,72.06
2023-05-06T10:42:52.264Z,70.61
2023-05-06T10:48:12.713Z,70.03
2023-05-06T10:53:13.451Z,71.28
2023-05-06T10:58:17.344Z,72.36
2023-05-06T11:03:24.535Z,71.57
2023-05-06T11:08:27.181Z,71.18
2023-05-06T11:13:30.583Z,69.52
2023-05-06T11:18:45.027Z,67.57
2023-05-06T11:24:08.374Z,68.06
2023-05-06T11:29:10.729Z,68.60
2023-05-06T11:34:14.052Z,67.99
2023-05-06T11:39:14.798Z,66.95
2023-05-06T11:44:30.702Z,65.58
2023-05-06T11:49:31.664Z,64.31
2023-05-06T11:54:35.625Z,63.01
2023-05-06T11:59:39.463Z,61.78
2023-05-06T12:04:41.692Z,59.71
2023-05-06T12:09:44.052Z,59.24
2023-05-06T12:14:47.410Z,58.10
2023-05-06T12:19:48.329Z,60.67
2023-05-06T12:24:49.768Z,62.00
2023-05-06T12:29:54.812Z,63.05
2023-05-06T12:34:56.508Z,62.94
2023-05-06T12:39:59.209Z,62.11
2023-05-06T12:45:14.153Z,61.99
2023-05-06T12:50:14.844Z,60.74
2023-05-06T12:55:15.711Z,60.72
2023-05-06T13:00:18.521Z,61.41
2023-05-06T13:05:19.431Z,60.36
2023-05-06T13:10:20.154Z,58.76
2023-05-06T13:15:22.191Z,58.97
2023-05-06T13:20:22.935Z,59.67
2023-05-06T13:25:23.746Z,60.55
2023-05-06T13:30:25.955Z,61.73
2023-05-06T13:35:26.815Z,63.88
2023-05-06T13:40:27.630Z,63.62
2023-05-06T13:45:29.640Z,63.61
2023-05-06T13:50:30.346Z,64.27
2023-05-06T13:55:31.412Z,64.05
2023-05-06T14:00:33.913Z,65.91
2023-05-06T14:05:34.632Z,65.73
2023-05-06T14:10:35.410Z,68.05
2023-05-06T14:15:37.516Z,68.15
2023-05-06T14:20:38.215Z,67.00
2023-05-06T14:25:39.016Z,65.09
2023-05-06T14:30:41.188Z,65.48
2023-05-06T14:35:42.770Z,68.28
2023-05-06T14:40:43.552Z,66.84
2023-05-06T14:45:45.666Z,67.32
2023-05-06T14:50:46.377Z,66.84
2023-05-06T14:55:48.852Z,68.40
2023-05-06T15:00:50.951Z,67.55
2023-05-06T15:05:51.702Z,68.29
2023-05-06T15:10:52.425Z,68.51
2023-05-06T15:15:54.646Z,67.51
2023-05-06T15:20:57.676Z,67.96
2023-05-06T15:25:58.806Z,69.36
2023-05-06T15:31:00.826Z,69.61
2023-05-06T15:36:01.527Z,69.49
2023-05-06T15:41:02.402Z,68.31
2023-05-06T15:46:04.424Z,67.37
2023-05-06T15:51:05.339Z,66.04
2023-05-06T15:56:13.458Z,64.60
2023-05-06T16:01:23.778Z,62.02
2023-05-06T16:06:36.199Z,61.32
2023-05-06T16:11:36.875Z,59.76
2023-05-06T16:16:38.918Z,63.49
2023-05-06T16:21:39.654Z,61.17
2023-05-06T16:26:40.420Z,64.39
2023-05-06T16:31:42.791Z,65.94
2023-05-06T16:36:43.632Z,67.20
2023-05-06T16:41:44.441Z,67.61
2023-05-06T16:46:46.550Z,68.36
2023-05-06T16:51:47.244Z,69.20
2023-05-06T16:56:52.148Z,68.34
2023-05-06T17:01:54.743Z,67.83
2023-05-06T17:06:56.036Z,67.14
2023-05-06T17:11:57.458Z,67.67
2023-05-06T17:17:02.202Z,68.03
2023-05-06T17:22:02.968Z,68.44
2023-05-06T17:27:03.725Z,67.98
2023-05-06T17:32:06.316Z,68.76
2023-05-06T17:37:07.421Z,68.55
2023-05-06T17:42:08.477Z,69.03
2023-05-06T17:47:10.668Z,70.43
2023-05-06T17:52:11.407Z,70.92
2023-05-06T17:57:12.206Z,71.35
2023-05-06T18:02:15.970Z,71.06
2023-05-06T18:07:16.613Z,71.55
2023-05-06T18:12:17.319Z,71.99
2023-05-06T18:17:19.460Z,73.53
2023-05-06T18:22:20.231Z,72.38
2023-05-06T18:27:20.956Z,72.06
2023-05-06T18:32:22.958Z,73.53
2023-05-06T18:37:23.633Z,74.53
2023-05-06T18:42:24.355Z,73.58
2023-05-06T18:47:26.496Z,74.07
2023-05-06T18:52:27.212Z,73.86
2023-05-06T18:57:27.882Z,74.26
2023-05-06T19:02:30.099Z,74.26
2023-05-06T19:07:30.878Z,75.33
2023-05-06T19:12:31.590Z,74.73
2023-05-06T19:17:33.630Z,75.98
2023-05-06T19:22:34.431Z,75.46
2023-05-06T19:27:35.100Z,76.35
2023-05-06T19:32:37.297Z,76.47
2023-05-06T19:37:38.551Z,78.02
2023-05-06T19:42:39.275Z,76.17
2023-05-06T19:47:41.378Z,76.70
2023-05-06T19:52:42.075Z,75.67
2023-05-06T19:57:42.732Z,75.40
2023-05-06T20:02:44.936Z,76.33
2023-05-06T20:07:45.904Z,75.26
2023-05-06T20:12:46.567Z,75.74
2023-05-06T20:17:48.739Z,76.55
2023-05-06T20:22:49.520Z,76.16
2023-05-06T20:27:50.238Z,77.68
2023-05-06T20:32:52.301Z,77.85
2023-05-06T20:37:54.484Z,78.51
2023-05-06T20:42:55.255Z,79.12
2023-05-06T20:47:57.279Z,79.40
2023-05-06T20:52:58.055Z,80.14
2023-05-06T20:57:58.731Z,80.54
2023-05-06T21:03:01.373Z,80.41
2023-05-06T21:08:02.274Z,79.35
2023-05-06T21:13:02.977Z,79.36
2023-05-06T21:18:05.265Z,79.45
2023-05-06T21:23:06.073Z,79.86
2023-05-06T21:28:06.834Z,79.61
2023-05-06T21:33:11.122Z,79.70
2023-05-06T21:38:11.947Z,78.48
2023-05-06T21:43:12.787Z,79.44
2023-05-06T21:48:14.819Z,79.00
2023-05-06T21:53:15.537Z,79.87
2023-05-06T21:58:16.254Z,79.70
2023-05-06T22:03:18.369Z,79.50
2023-05-06T22:08:19.154Z,80.00
2023-05-06T22:13:20.167Z,80.49
2023-05-06T22:18:22.302Z,80.78
2023-05-06T22:23:23.965Z,80.65
2023-05-06T22:28:24.738Z,80.54
2023-05-06T22:33:27.041Z,80.64
2023-05-06T22:38:27.729Z,80.53
2023-05-06T22:43:28.421Z,80.03
2023-05-06T22:48:31.682Z,80.95
2023-05-06T22:53:32.420Z,80.18
2023-05-06T22:58:33.540Z,80.45
2023-05-06T23:03:36.177Z,80.11
2023-05-06T23:08:36.895Z,80.44
2023-05-06T23:13:37.760Z,80.31
2023-05-06T23:18:39.857Z,80.53
2023-05-06T23:23:40.581Z,80.38
2023-05-06T23:28:41.237Z,80.68
2023-05-06T23:33:43.226Z,81.55
2023-05-06T23:38:43.890Z,81.08
2023-05-06T23:43:44.520Z,81.67
2023-05-06T23:48:46.495Z,81.24
2023-05-06T23:53:47.308Z,80.83
2023-05-06T23:58:47.987Z,82.09
